createdAt,value
2023-01-20T00:00:20.253Z,76.50
2023-01-20T00:03:09.831Z,75.74
2023-01-20T00:05:39.148Z,75.78
2023-01-20T00:08:08.721Z,75.57
2023-01-20T00:10:39.637Z,75.84
2023-01-20T00:13:09.121Z,76.04
2023-01-20T00:15:39.861Z,76.28
2023-01-20T00:18:09.393Z,77.28
2023-01-20T00:20:38.723Z,77.53
2023-01-20T00:23:08.325Z,78.16
2023-01-20T00:25:37.727Z,78.34
2023-01-20T00:28:07.585Z,78.78
2023-01-20T00:30:38.239Z,78.61
2023-01-20T00:33:07.807Z,78.59
2023-01-20T00:35:38.880Z,78.45
2023-01-20T00:38:08.490Z,78.83
2023-01-20T00:40:37.732Z,78.67
2023-01-20T00:43:07.278Z,78.96
2023-01-20T00:45:36.737Z,78.80
2023-01-20T00:48:08.458Z,79.19
2023-01-20T00:50:37.694Z,79.01
2023-01-20T00:53:07.275Z,78.60
2023-01-20T00:55:36.674Z,78.57
2023-01-20T00:58:06.327Z,78.29
2023-01-20T01:00:35.752Z,78.32
2023-01-20T01:03:07.036Z,78.69
2023-01-20T01:05:36.548Z,79.27
2023-01-20T01:08:06.443Z,79.69
2023-01-20T01:10:35.893Z,79.46
2023-01-20T01:13:06.407Z,78.72
2023-01-20T01:15:35.791Z,78.88
2023-01-20T01:18:06.988Z,79.19
2023-01-20T01:20:36.273Z,78.96
2023-01-20T01:23:05.903Z,79.49
2023-01-20T01:25:35.164Z,79.21
2023-01-20T01:28:05.001Z,79.86
2023-01-20T01:30:34.298Z,79.63
2023-01-20T01:33:04.011Z,78.70
2023-01-20T01:35:34.751Z,78.31
2023-01-20T01:38:04.382Z,78.46
2023-01-20T01:40:34.477Z,77.89
2023-01-20T01:43:04.268Z,77.71
2023-01-20T01:45:35.010Z,78.82
2023-01-20T01:48:09.343Z,78.01
2023-01-20T01:50:45.682Z,78.65
2023-01-20T01:53:16.585Z,79.15
2023-01-20T01:55:50.963Z,79.63
2023-01-20T01:58:25.902Z,78.75
2023-01-20T02:00:55.387Z,78.22
2023-01-20T02:03:25.442Z,78.04
2023-01-20T02:05:57.293Z,77.87
2023-01-20T02:08:27.609Z,77.66
2023-01-20T02:10:56.789Z,77.92
2023-01-20T02:13:26.475Z,78.72
2023-01-20T02:16:04.385Z,78.28
2023-01-20T02:18:47.712Z,78.11
2023-01-20T02:22:03.496Z,78.05
2023-01-20T02:25:20.847Z,78.47
2023-01-20T02:28:33.676Z,78.72
2023-01-20T02:31:36.104Z,78.31
2023-01-20T02:34:13.976Z,78.87
2023-01-20T02:36:49.063Z,79.82
2023-01-20T02:39:27.369Z,79.28
2023-01-20T02:42:04.952Z,78.78
2023-01-20T02:44:42.198Z,79.21
2023-01-20T02:47:18.311Z,78.88
2023-01-20T02:49:53.702Z,78.74
2023-01-20T02:52:26.757Z,78.71
2023-01-20T02:55:00.380Z,79.10
2023-01-20T02:57:34.107Z,79.49
2023-01-20T03:00:09.310Z,79.90
2023-01-20T03:02:41.472Z,80.14
2023-01-20T03:05:19.066Z,79.90
2023-01-20T03:07:52.264Z,79.82
2023-01-20T03:10:26.069Z,79.61
2023-01-20T03:12:59.923Z,79.76
2023-01-20T03:15:37.677Z,80.30
2023-01-20T03:18:07.279Z,80.35
2023-01-20T03:20:38.532Z,79.86
2023-01-20T03:23:08.179Z,79.79
2023-01-20T03:25:39.235Z,78.76
2023-01-20T03:28:09.209Z,78.31
2023-01-20T03:35:44.097Z,78.47
2023-01-20T03:38:13.899Z,78.61
2023-01-20T03:40:50.300Z,79.20
2023-01-20T03:43:30.931Z,79.18
2023-01-20T03:46:06.656Z,78.35
2023-01-20T03:48:43.462Z,78.20
2023-01-20T03:51:19.719Z,78.40
2023-01-20T03:53:54.675Z,78.97
2023-01-20T03:56:28.536Z,78.70
2023-01-20T03:59:01.737Z,79.04
2023-01-20T04:01:36.360Z,78.05
2023-01-20T04:04:10.010Z,78.04
2023-01-20T04:06:43.864Z,78.91
2023-01-20T04:09:18.491Z,78.93
2023-01-20T04:11:47.848Z,78.76
2023-01-20T04:14:17.349Z,79.62
2023-01-20T04:16:53.280Z,79.41
2023-01-20T04:19:22.967Z,78.05
2023-01-20T04:22:01.374Z,78.18
2023-01-20T04:24:37.590Z,78.56
2023-01-20T04:27:06.600Z,78.17
2023-01-20T04:29:36.061Z,77.73
2023-01-20T04:32:05.989Z,77.80
2023-01-20T04:34:35.660Z,77.32
2023-01-20T04:37:06.340Z,77.58
2023-01-20T04:39:35.808Z,77.43
2023-01-20T04:42:06.396Z,77.04
2023-01-20T04:44:35.870Z,77.29
2023-01-20T04:47:05.177Z,76.61
2023-01-20T04:49:35.459Z,76.37
2023-01-20T04:52:06.199Z,76.57
2023-01-20T04:54:36.046Z,77.11
2023-01-20T04:57:05.236Z,76.28
2023-01-20T04:59:34.663Z,76.69
2023-01-20T05:02:04.108Z,76.02
2023-01-20T05:04:33.696Z,76.29
2023-01-20T05:07:02.898Z,76.30
2023-01-20T05:09:33.995Z,76.10
2023-01-20T05:12:03.476Z,75.65
2023-01-20T05:14:32.985Z,76.34
2023-01-20T05:17:02.195Z,76.91
2023-01-20T05:19:31.774Z,77.18
2023-01-20T05:22:01.550Z,77.76
2023-01-20T05:24:32.436Z,78.05
2023-01-20T05:27:02.556Z,77.71
2023-01-20T05:29:32.236Z,77.15
2023-01-20T05:32:01.356Z,77.41
2023-01-20T05:34:30.728Z,77.99
2023-01-20T05:36:59.766Z,77.85
2023-01-20T05:39:29.304Z,77.14
2023-01-20T05:41:59.835Z,77.15
2023-01-20T05:44:29.571Z,76.75
2023-01-20T05:46:58.675Z,76.81
2023-01-20T05:49:28.273Z,76.91
2023-01-20T05:51:57.671Z,78.44
2023-01-20T05:54:27.388Z,78.09
2023-01-20T05:56:59.030Z,77.71
2023-01-20T05:59:28.733Z,77.35
2023-01-20T06:01:58.874Z,77.41
2023-01-20T06:04:29.029Z,77.51
2023-01-20T06:06:58.934Z,77.54
2023-01-20T06:09:28.386Z,77.62
2023-01-20T06:11:59.094Z,77.67
2023-01-20T06:14:28.655Z,77.88
2023-01-20T06:16:57.960Z,78.86
2023-01-20T06:19:27.466Z,79.15
2023-01-20T06:21:56.613Z,78.82
2023-01-20T06:24:26.225Z,79.02
2023-01-20T06:26:55.519Z,78.09
2023-01-20T06:29:26.384Z,78.02
2023-01-20T06:31:55.914Z,76.83
2023-01-20T06:34:25.429Z,76.86
2023-01-20T06:36:54.619Z,76.26
2023-01-20T06:39:24.195Z,76.89
2023-01-20T06:41:53.475Z,76.36
2023-01-20T06:44:22.930Z,75.57
2023-01-20T06:46:53.448Z,76.37
2023-01-20T06:49:22.941Z,77.12
2023-01-20T06:51:52.194Z,76.69
2023-01-20T06:54:21.860Z,77.01
2023-01-20T06:56:51.115Z,76.72
2023-01-20T06:59:20.533Z,77.67
2023-01-20T07:01:50.469Z,78.33
2023-01-20T07:04:21.491Z,78.54
2023-01-20T07:06:50.712Z,77.00
2023-01-20T07:09:20.146Z,77.27
2023-01-20T07:11:49.247Z,75.92
2023-01-20T07:14:18.687Z,75.75
2023-01-20T07:16:48.627Z,75.63
2023-01-20T07:19:18.348Z,75.85
2023-01-20T07:21:49.012Z,76.11
2023-01-20T07:24:19.024Z,75.30
2023-01-20T07:26:48.213Z,75.66
2023-01-20T07:29:18.056Z,74.84
2023-01-20T07:31:47.577Z,75.43
2023-01-20T07:34:17.248Z,75.77
2023-01-20T07:36:48.006Z,76.30
2023-01-20T07:39:20.217Z,75.71
2023-01-20T07:41:49.802Z,75.96
2023-01-20T07:44:19.426Z,74.79
2023-01-20T07:46:48.696Z,74.43
2023-01-20T07:49:18.000Z,74.48
2023-01-20T07:51:48.582Z,73.75
2023-01-20T07:54:17.977Z,73.66
2023-01-20T07:56:47.282Z,73.85
2023-01-20T07:59:16.772Z,73.49
2023-01-20T08:01:46.325Z,74.32
2023-01-20T08:04:15.879Z,73.57
2023-01-20T08:06:45.292Z,73.66
2023-01-20T08:09:16.443Z,73.64
2023-01-20T08:11:45.752Z,74.23
2023-01-20T08:14:15.267Z,74.98
2023-01-20T08:16:44.516Z,75.17
2023-01-20T08:19:14.205Z,75.55
2023-01-20T08:21:43.501Z,74.58
2023-01-20T08:24:13.219Z,73.97
2023-01-20T08:26:44.106Z,73.72
2023-01-20T08:29:13.610Z,74.06
2023-01-20T08:31:43.143Z,74.35
2023-01-20T08:34:13.308Z,74.52
2023-01-20T08:36:43.555Z,74.27
2023-01-20T08:39:18.138Z,74.36
2023-01-20T08:41:49.983Z,73.26
2023-01-20T08:44:20.515Z,72.39
2023-01-20T08:46:52.819Z,72.75
2023-01-20T08:49:23.667Z,73.67
2023-01-20T08:51:53.177Z,72.70
2023-01-20T08:54:23.002Z,72.28
2023-01-20T08:56:54.342Z,71.99
2023-01-20T08:59:24.038Z,71.48
2023-01-20T09:01:53.229Z,72.16
2023-01-20T09:04:22.685Z,72.68
2023-01-20T09:06:52.860Z,73.51
2023-01-20T09:09:24.335Z,72.21
2023-01-20T09:11:54.854Z,70.91
2023-01-20T09:14:26.115Z,71.74
2023-01-20T09:16:55.490Z,73.35
2023-01-20T09:19:24.991Z,72.55
2023-01-20T09:21:54.528Z,71.93
2023-01-20T09:24:24.715Z,71.54
2023-01-20T09:26:56.907Z,70.59
2023-01-20T09:29:26.825Z,70.33
2023-01-20T09:31:58.942Z,69.48
2023-01-20T09:34:30.340Z,69.54
2023-01-20T09:37:21.426Z,70.19
2023-01-20T09:40:08.566Z,70.64
2023-01-20T09:43:10.000Z,70.23
2023-01-20T09:45:46.593Z,71.32
2023-01-20T09:48:43.949Z,70.64
2023-01-20T09:51:39.268Z,70.02
2023-01-20T09:54:15.963Z,71.64
2023-01-20T09:56:51.326Z,71.62
2023-01-20T09:59:28.282Z,70.43
2023-01-20T10:02:02.741Z,69.56
2023-01-20T10:04:38.075Z,70.36
2023-01-20T10:07:12.844Z,69.94
2023-01-20T10:09:47.418Z,69.14
2023-01-20T10:12:21.385Z,68.01
2023-01-20T10:14:56.253Z,68.94
2023-01-20T10:17:31.025Z,67.65
2023-01-20T10:20:06.151Z,68.40
2023-01-20T10:22:43.814Z,69.07
2023-01-20T10:25:19.330Z,68.08
2023-01-20T10:27:54.702Z,67.89
2023-01-20T10:30:31.539Z,66.70
2023-01-20T10:33:06.739Z,67.74
2023-01-20T10:35:38.970Z,67.08
2023-01-20T10:38:19.283Z,67.38
2023-01-20T10:40:55.130Z,67.08
2023-01-20T10:43:25.038Z,67.04
2023-01-20T10:46:12.627Z,66.94
2023-01-20T10:49:03.634Z,66.79
2023-01-20T10:51:44.229Z,67.97
2023-01-20T10:54:27.957Z,66.53
2023-01-20T10:57:00.436Z,66.69
2023-01-20T10:59:32.946Z,67.53
2023-01-20T11:02:15.454Z,68.62
2023-01-20T11:04:46.663Z,68.06
2023-01-20T11:07:19.718Z,67.73
2023-01-20T11:09:50.608Z,67.83
2023-01-20T11:12:30.422Z,67.43
2023-01-20T11:15:02.064Z,66.65
2023-01-20T11:17:32.889Z,67.06
2023-01-20T11:20:07.443Z,67.38
2023-01-20T11:22:42.644Z,67.16
2023-01-20T11:25:26.811Z,67.26
2023-01-20T11:27:58.268Z,66.34
2023-01-20T11:30:30.911Z,66.86
2023-01-20T11:33:19.407Z,67.46
2023-01-20T11:36:03.136Z,67.12
2023-01-20T11:38:42.175Z,66.13
2023-01-20T11:41:21.463Z,68.68
2023-01-20T11:43:51.576Z,69.69
2023-01-20T11:46:28.525Z,67.56
2023-01-20T11:49:18.868Z,68.20
2023-01-20T11:51:51.884Z,67.50
2023-01-20T11:54:23.134Z,66.92
2023-01-20T11:56:56.683Z,66.85
2023-01-20T11:59:29.193Z,67.57
2023-01-20T12:02:01.945Z,68.03
2023-01-20T12:04:58.237Z,67.20
2023-01-20T12:07:32.094Z,67.24
2023-01-20T12:10:06.247Z,68.28
2023-01-20T12:12:43.886Z,67.55
2023-01-20T12:15:22.096Z,66.83
2023-01-20T12:17:59.853Z,67.01
2023-01-20T12:20:45.677Z,66.28
2023-01-20T12:23:33.971Z,66.36
2023-01-20T12:26:05.958Z,66.10
2023-01-20T12:28:42.260Z,65.63
2023-01-20T12:31:12.558Z,65.57
2023-01-20T12:33:45.526Z,66.01
2023-01-20T12:36:43.181Z,66.17
2023-01-20T12:39:40.054Z,67.03
2023-01-20T12:42:29.920Z,68.34
2023-01-20T12:45:05.074Z,67.75
2023-01-20T12:47:50.060Z,67.38
2023-01-20T12:50:31.939Z,65.87
2023-01-20T12:53:21.439Z,66.75
2023-01-20T12:56:04.529Z,64.40
2023-01-20T12:58:44.749Z,64.52
2023-01-20T13:01:41.133Z,64.65
2023-01-20T13:04:37.833Z,66.46
2023-01-20T13:12:14.560Z,65.75
2023-01-20T13:14:47.405Z,66.56
2023-01-20T13:17:23.621Z,66.41
2023-01-20T13:19:57.880Z,66.47
2023-01-20T13:22:28.008Z,65.25
2023-01-20T13:24:59.680Z,65.32
2023-01-20T13:27:34.092Z,65.49
2023-01-20T13:30:05.167Z,67.11
2023-01-20T13:32:36.894Z,66.57
2023-01-20T13:35:46.159Z,67.00
2023-01-20T13:38:24.331Z,67.27
2023-01-20T13:40:56.925Z,66.88
2023-01-20T13:43:47.030Z,66.69
2023-01-20T13:46:48.618Z,68.83
2023-01-20T13:49:47.583Z,67.79
2023-01-20T13:52:17.502Z,68.36
2023-01-20T13:54:48.822Z,67.49
2023-01-20T13:57:37.984Z,67.54
2023-01-20T14:00:17.846Z,67.92
2023-01-20T14:02:48.885Z,68.14
2023-01-20T14:05:31.325Z,68.44
2023-01-20T14:08:01.396Z,67.26
2023-01-20T14:10:31.028Z,67.67
2023-01-20T14:13:00.177Z,67.48
2023-01-20T14:15:40.096Z,67.19
2023-01-20T14:18:18.907Z,67.75
2023-01-20T14:21:16.889Z,68.13
2023-01-20T14:23:47.230Z,68.35
2023-01-20T14:26:23.857Z,68.43
2023-01-20T14:28:54.650Z,68.67
2023-01-20T14:31:37.648Z,68.88
2023-01-20T14:34:26.914Z,70.64
2023-01-20T14:36:58.894Z,71.59
2023-01-20T14:39:30.387Z,70.81
2023-01-20T14:42:01.135Z,70.90
2023-01-20T14:44:33.325Z,70.31
2023-01-20T14:47:05.672Z,71.38
2023-01-20T14:49:39.440Z,71.27
2023-01-20T14:52:13.782Z,71.91
2023-01-20T14:54:45.613Z,71.54
2023-01-20T15:02:31.840Z,71.86
2023-01-20T15:05:02.001Z,71.83
2023-01-20T15:07:31.413Z,72.51
2023-01-20T15:10:09.103Z,72.24
2023-01-20T15:12:53.687Z,73.06
2023-01-20T15:15:28.666Z,73.00
2023-01-20T15:18:23.694Z,72.81
2023-01-20T15:21:11.727Z,72.47
2023-01-20T15:23:51.299Z,73.13
2023-01-20T15:26:27.801Z,73.32
2023-01-20T15:28:58.714Z,73.12
2023-01-20T15:31:28.382Z,73.56
2023-01-20T15:33:58.973Z,72.83
2023-01-20T15:36:33.170Z,72.32
2023-01-20T15:39:02.444Z,72.13
2023-01-20T15:41:31.863Z,72.53
2023-01-20T15:44:01.013Z,73.04
2023-01-20T15:46:30.896Z,72.76
2023-01-20T15:49:01.896Z,73.05
2023-01-20T15:56:45.172Z,72.61
2023-01-20T15:59:17.225Z,72.73
2023-01-20T16:01:50.023Z,72.76
2023-01-20T16:04:24.529Z,72.58
2023-01-20T16:06:54.304Z,72.97
2023-01-20T16:09:29.985Z,73.13
2023-01-20T16:11:59.357Z,72.86
2023-01-20T16:14:29.105Z,73.16
2023-01-20T16:16:58.548Z,72.60
2023-01-20T16:19:29.564Z,72.76
2023-01-20T16:21:58.739Z,72.46
2023-01-20T16:24:28.263Z,73.12
2023-01-20T16:26:57.594Z,73.11
2023-01-20T16:29:27.101Z,73.15
2023-01-20T16:31:56.414Z,72.82
2023-01-20T16:34:25.890Z,72.94
2023-01-20T16:36:56.382Z,72.98
2023-01-20T16:39:25.899Z,74.02
2023-01-20T16:41:55.226Z,74.19
2023-01-20T16:44:25.002Z,73.72
2023-01-20T16:46:54.305Z,74.37
2023-01-20T16:49:23.848Z,74.34
2023-01-20T16:51:53.022Z,74.55
2023-01-20T16:54:24.057Z,74.08
2023-01-20T16:56:53.199Z,75.88
2023-01-20T16:59:22.862Z,74.87
2023-01-20T17:01:52.306Z,74.59
2023-01-20T17:04:21.969Z,74.02
2023-01-20T17:06:53.328Z,73.94
2023-01-20T17:09:24.450Z,73.53
2023-01-20T17:11:53.779Z,73.92
2023-01-20T17:14:23.348Z,73.81
2023-01-20T17:16:52.691Z,73.90
2023-01-20T17:19:22.247Z,73.84
2023-01-20T17:21:51.640Z,74.54
2023-01-20T17:24:21.291Z,74.84
2023-01-20T17:26:51.950Z,75.28
2023-01-20T17:29:22.053Z,75.20
2023-01-20T17:31:51.544Z,76.87
2023-01-20T17:34:21.214Z,75.89
2023-01-20T17:36:50.832Z,74.93
2023-01-20T17:39:20.365Z,74.98
2023-01-20T17:41:50.876Z,75.34
2023-01-20T17:44:20.404Z,75.18
2023-01-20T17:46:51.046Z,74.79
2023-01-20T17:49:20.497Z,75.05
2023-01-20T17:51:49.942Z,75.74
2023-01-20T17:54:19.794Z,75.62
2023-01-20T17:56:50.511Z,75.77
2023-01-20T17:59:20.002Z,75.25
2023-01-20T18:01:52.465Z,75.47
2023-01-20T18:04:22.261Z,76.75
2023-01-20T18:06:51.565Z,76.17
2023-01-20T18:09:21.133Z,76.40
2023-01-20T18:11:51.821Z,76.11
2023-01-20T18:14:21.441Z,75.75
2023-01-20T18:16:50.704Z,76.25
2023-01-20T18:19:20.365Z,75.84
2023-01-20T18:21:49.781Z,76.27
2023-01-20T18:24:19.416Z,76.14
2023-01-20T18:26:50.128Z,76.44
2023-01-20T18:29:19.637Z,77.00
2023-01-20T18:31:49.541Z,76.74
2023-01-20T18:34:19.236Z,77.31
2023-01-20T18:36:49.297Z,77.55
2023-01-20T18:39:20.285Z,78.31
2023-01-20T18:41:51.991Z,76.40
2023-01-20T18:44:23.229Z,76.33
2023-01-20T18:46:52.483Z,76.18
2023-01-20T18:49:22.191Z,77.28
2023-01-20T18:51:51.479Z,77.25
2023-01-20T18:54:22.312Z,77.98
2023-01-20T18:56:53.234Z,77.15
2023-01-20T18:59:22.702Z,77.00
2023-01-20T19:01:52.032Z,77.51
2023-01-20T19:04:21.869Z,78.19
2023-01-20T19:06:51.184Z,76.89
2023-01-20T19:09:21.220Z,77.34
2023-01-20T19:11:52.006Z,76.96
2023-01-20T19:14:21.620Z,76.94
2023-01-20T19:16:51.016Z,76.87
2023-01-20T19:19:20.610Z,77.20
2023-01-20T19:21:52.966Z,77.08
2023-01-20T19:24:27.294Z,77.01
2023-01-20T19:27:00.351Z,77.50
2023-01-20T19:29:30.376Z,77.97
2023-01-20T19:31:59.652Z,77.70
2023-01-20T19:34:29.357Z,77.48
2023-01-20T19:36:59.980Z,77.44
2023-01-20T19:39:29.556Z,77.68
2023-01-20T19:42:00.827Z,77.28
2023-01-20T19:44:30.728Z,76.71
2023-01-20T19:47:04.193Z,77.90
2023-01-20T19:49:33.821Z,78.29
2023-01-20T19:52:03.203Z,78.69
2023-01-20T19:54:33.775Z,79.28
2023-01-20T19:57:04.626Z,78.71
2023-01-20T19:59:34.154Z,78.79
2023-01-20T20:02:03.782Z,78.84
2023-01-20T20:04:33.611Z,79.00
2023-01-20T20:07:03.176Z,78.96
2023-01-20T20:09:32.865Z,79.04
2023-01-20T20:12:06.167Z,78.77
2023-01-20T20:14:35.875Z,78.50
2023-01-20T20:17:05.320Z,78.53
2023-01-20T20:19:35.090Z,78.03
2023-01-20T20:22:04.434Z,77.89
2023-01-20T20:24:34.207Z,77.50
2023-01-20T20:27:05.169Z,77.35
2023-01-20T20:29:34.874Z,78.04
2023-01-20T20:32:04.149Z,78.38
2023-01-20T20:34:34.321Z,78.34
2023-01-20T20:37:04.049Z,77.98
2023-01-20T20:39:33.995Z,78.37
2023-01-20T20:42:04.832Z,78.10
2023-01-20T20:44:35.041Z,77.59
2023-01-20T20:47:04.415Z,77.62
2023-01-20T20:49:34.173Z,77.19
2023-01-20T20:52:03.746Z,77.16
2023-01-20T20:54:33.282Z,77.06
2023-01-20T20:57:03.910Z,76.83
2023-01-20T20:59:33.483Z,76.72
2023-01-20T21:02:02.850Z,76.85
2023-01-20T21:04:32.618Z,76.70
2023-01-20T21:07:02.264Z,76.65
2023-01-20T21:09:31.805Z,76.41
2023-01-20T21:12:01.041Z,76.49
2023-01-20T21:14:31.933Z,76.79
2023-01-20T21:17:01.484Z,76.69
2023-01-20T21:19:31.864Z,77.04
2023-01-20T21:22:01.007Z,76.89
2023-01-20T21:24:30.634Z,76.59
2023-01-20T21:27:01.427Z,76.71
2023-01-20T21:29:32.302Z,77.16
2023-01-20T21:32:01.495Z,76.66
2023-01-20T21:34:31.134Z,76.57
2023-01-20T21:37:00.523Z,76.52
2023-01-20T21:39:30.184Z,76.92
2023-01-20T21:41:59.359Z,76.61
2023-01-20T21:44:33.065Z,76.92
2023-01-20T21:47:05.375Z,77.07
2023-01-20T21:49:52.455Z,77.20
2023-01-20T21:52:41.325Z,77.84
2023-01-20T21:55:12.802Z,77.39
2023-01-20T21:57:42.048Z,77.26
2023-01-20T22:00:13.066Z,77.42
2023-01-20T22:02:45.770Z,77.05
2023-01-20T22:05:15.604Z,77.62
2023-01-20T22:07:47.876Z,77.39
2023-01-20T22:10:18.040Z,77.37
2023-01-20T22:12:47.630Z,77.53
2023-01-20T22:15:17.305Z,77.73
2023-01-20T22:17:47.916Z,77.21
2023-01-20T22:20:18.073Z,78.55
2023-01-20T22:22:47.580Z,77.99
2023-01-20T22:25:18.372Z,77.82
2023-01-20T22:27:49.921Z,78.10
2023-01-20T22:30:19.892Z,78.32
2023-01-20T22:32:50.851Z,77.49
2023-01-20T22:35:20.674Z,77.39
2023-01-20T22:37:49.791Z,77.74
2023-01-20T22:40:19.470Z,77.77
2023-01-20T22:42:48.610Z,77.70
2023-01-20T22:45:18.177Z,77.22
2023-01-20T22:47:47.419Z,77.05
2023-01-20T22:50:18.937Z,77.44
2023-01-20T22:52:48.239Z,77.48
2023-01-20T22:55:17.805Z,77.02
2023-01-20T22:57:47.250Z,77.06
2023-01-20T23:00:19.010Z,77.34
2023-01-20T23:02:48.634Z,77.10
2023-01-20T23:05:19.609Z,76.68
2023-01-20T23:07:48.851Z,77.54
2023-01-20T23:10:32.588Z,77.28
2023-01-20T23:13:01.975Z,77.18
2023-01-20T23:15:31.583Z,77.18
2023-01-20T23:18:00.813Z,77.38
2023-01-20T23:20:31.759Z,77.03
2023-01-20T23:23:00.937Z,76.86
2023-01-20T23:25:30.548Z,77.18
2023-01-20T23:27:59.788Z,77.28
2023-01-20T23:30:29.451Z,77.90
2023-01-20T23:32:58.666Z,78.02
2023-01-20T23:35:28.304Z,77.67
2023-01-20T23:37:58.936Z,79.09
2023-01-20T23:40:30.311Z,78.96
2023-01-20T23:42:59.523Z,79.80
2023-01-20T23:45:29.291Z,78.87
2023-01-20T23:47:58.599Z,79.25
2023-01-20T23:50:28.074Z,79.53
2023-01-20T23:52:58.788Z,79.40
2023-01-20T23:55:28.329Z,79.18
2023-01-20T23:57:57.889Z,79.52
